This is the latest recevied weather packets stored in our database for station/object DG5TS-10. If no packets are shown the sender has not sent any weather packets the latest 10 day(s).
| Time | Temp. | Humidity | Pressure | Rain* | Wind** | Luminosity | Snow |
|---|---|---|---|---|---|---|---|
| 1777987923 | 28.33° C | 25% | 1009.7 hPa | - | - | - | - |
| 1777986867 | 28.33° C | 26% | 1010 hPa | - | - | - | - |
| 1777985813 | 26.67° C | 27% | 1010.1 hPa | - | - | - | - |
| 1777984758 | 26.67° C | 28% | 1010.2 hPa | - | - | - | - |
| 1777983703 | 23.89° C | 31% | 1010.2 hPa | - | - | - | - |
| 1777982647 | 23.89° C | 30% | 1010.2 hPa | - | - | - | - |
| 1777981593 | 23.89° C | 30% | 1010.1 hPa | - | - | - | - |
| 1777980538 | 25.56° C | 27% | 1010.2 hPa | - | - | - | - |
| 1777979482 | 26.11° C | 27% | 1010.3 hPa | - | - | - | - |
| 1777978427 | 26.67° C | 31% | 1010.3 hPa | - | - | - | - |
| 1777977372 | 26.11° C | 32% | 1010.4 hPa | - | - | - | - |
| 1777976317 | 26.67° C | 32% | 1010.5 hPa | - | - | - | - |
| 1777975262 | 26.11° C | 32% | 1010.6 hPa | - | - | - | - |
| 1777974207 | 25.56° C | 33% | 1010.6 hPa | - | - | - | - |
| 1777973152 | 23.89° C | 36% | 1010.6 hPa | - | - | - | - |
| 1777972096 | 25° C | 33% | 1010.7 hPa | - | - | - | - |
| 1777971041 | 22.78° C | 36% | 1010.8 hPa | - | - | - | - |
| 1777969986 | 21.11° C | 39% | 1010.9 hPa | - | - | - | - |
| 1777968931 | 20° C | 40% | 1011.1 hPa | - | - | - | - |
| 1777967876 | 20° C | 40% | 1011.1 hPa | - | - | - | - |
| 1777966821 | 19.44° C | 41% | 1011.1 hPa | - | - | - | - |
| 1777965766 | 19.44° C | 40% | 1011.2 hPa | - | - | - | - |
| 1777964710 | 18.89° C | 40% | 1011.2 hPa | - | - | - | - |
| 1777963656 | 19.44° C | 40% | 1011.2 hPa | - | - | - | - |
| 1777962601 | 18.89° C | 40% | 1011.3 hPa | - | - | - | - |
* Rain since midnight (hover to see other rain measurements)
** Current wind speed in m/s (hover to see current wind gust speed)